18 augustus 2022

Tijd Code Weer Temp. Zicht Plafond Wind METAR/SPECI
21:30
V
25 °C 10 km+ - 330° 330° 7 kt METAR LFMU 181930Z AUTO 33007KT CAVOK 25/13 Q1014 TEMPO SHRA BKN014 SCT030CB BKN050 BECMG 30017G27KT
21:00
V
26 °C 10 km+ - 300° 300° 11 kt METAR LFMU 181900Z AUTO 30011KT CAVOK 26/12 Q1013 TEMPO SHRA BKN014 SCT030CB BKN050 BECMG 30017G27KT
20:30
V
26 °C 10 km+ - 290° 290° 13 kt METAR LFMU 181830Z AUTO 29013KT CAVOK 26/12 Q1013 TEMPO SHRA BKN014 SCT030CB BKN050 BECMG 30017G27KT
20:00
V
26 °C 10 km+ - 290° 290° 15 kt METAR LFMU 181800Z AUTO 29015KT CAVOK 26/13 Q1012 TEMPO SHRA BKN014 SCT030CB BKN050 BECMG 30017G27KT
19:30
V
27 °C 10 km+ - 300° 300° 17 kt METAR LFMU 181730Z AUTO 30017KT CAVOK 27/12 Q1012 TEMPO SHRA BKN014 SCT030CB BKN050 BECMG 30017G27KT
19:00
V
27 °C 10 km+ - 300° 300° 16 kt METAR LFMU 181700Z AUTO 30016KT CAVOK 27/12 Q1012 TEMPO SHRA BKN014 SCT030CB BKN050 BECMG 30017G27KT
18:30
V
27 °C 10 km+ - 300° 300° 16 kt METAR LFMU 181630Z AUTO 30016KT CAVOK 27/13 Q1012 TEMPO SHRA BKN014 SCT030CB BKN050 BECMG 30017G27KT
18:00
V
28 °C 10 km+ - 300° 300° 15 kt METAR LFMU 181600Z AUTO 30015KT CAVOK 28/13 Q1012 BECMG 30017G27KT
17:30
V
29 °C 10 km+ - 330° 330° 14 kt METAR LFMU 181530Z AUTO 33014KT CAVOK 29/13 Q1011 BECMG 30017G27KT
17:00
V
29 °C 10 km+ - 330° 330° 14 kt METAR LFMU 181500Z AUTO 33014KT 300V360 CAVOK 29/13 Q1012 BECMG 30017G27KT
16:30
V
28 °C 10 km+ - 330° 330° 12 kt METAR LFMU 181430Z AUTO 33012KT 300V360 CAVOK 28/13 Q1012 TEMPO 30018G28KT
16:00
V
29 °C 10 km+ - 320° 320° 15 kt METAR LFMU 181400Z AUTO 32015KT CAVOK 29/14 Q1012 TEMPO 30018G28KT
15:30
V
28 °C 10 km+ - 340° 340° 15 kt METAR LFMU 181330Z AUTO 34015KT CAVOK 28/14 Q1012 TEMPO 30018G28KT
15:00
V
28 °C 10 km+ - 350° 350° 13 kt METAR LFMU 181300Z AUTO 35013KT CAVOK 28/14 Q1012 TEMPO 30018G28KT
14:30
V
28 °C 10 km+ - 320° 320° 14 kt METAR LFMU 181230Z AUTO 32014KT 290V360 CAVOK 28/14 Q1012 TEMPO 30018G28KT
14:00
V
27 °C 10 km+ - 340° 340° 16 kt METAR LFMU 181200Z AUTO 34016KT CAVOK 27/13 Q1012 TEMPO 30018G28KT
13:30
V
27 °C 10 km+ - 320° 320° 14 kt METAR LFMU 181130Z AUTO 32014KT CAVOK 27/14 Q1011 TEMPO 30018G28KT
13:00
V
26 °C 10 km+ - 320° 320° 13 kt METAR LFMU 181100Z AUTO 32013KT CAVOK 26/14 Q1012 TEMPO 30018G28KT
12:30
V
25 °C 10 km+ - 330° 330° 15 kt METAR LFMU 181030Z AUTO 33015KT CAVOK 25/14 Q1012 TEMPO 30018G28KT
12:00
V
25 °C 10 km+ - 330° 330° 15 kt METAR LFMU 181000Z AUTO 33015KT CAVOK 25/14 Q1012 NOSIG
11:30
V
25 °C 10 km+ - 320° 320° 16 kt METAR LFMU 180930Z AUTO 32016KT CAVOK 25/14 Q1012 NOSIG
11:00
V
25 °C 10 km+ - 310° 310° 15 kt METAR LFMU 180900Z AUTO 31015KT 290V350 CAVOK 25/14 Q1011 NOSIG
10:30
V
24 °C 10 km+ - 320° 320° 15 kt METAR LFMU 180830Z AUTO 32015KT CAVOK 24/15 Q1011 NOSIG
10:00
V
24 °C 10 km+ - 320° 320° 12 kt METAR LFMU 180800Z AUTO 32012KT CAVOK 24/15 Q1011 NOSIG
09:30
V
23 °C 10 km+ - 300° 300° 9 kt METAR LFMU 180730Z AUTO 30009KT CAVOK 23/16 Q1012 NOSIG
09:00
V
21 °C 10 km+ - 290° 290° 10 kt METAR LFMU 180700Z AUTO 29010KT CAVOK 21/16 Q1012 NOSIG
08:30
V
20 °C 10 km+ - 290° 290° 8 kt METAR LFMU 180630Z AUTO 29008KT 260V320 CAVOK 20/16 Q1011 NOSIG
08:00
V
19 °C 10 km+ - 280° 280° 6 kt METAR LFMU 180600Z AUTO 28006KT CAVOK 19/16 Q1011 NOSIG
07:30
V
19 °C 10 km+ - 280° 280° 10 kt METAR LFMU 180530Z AUTO 28010KT CAVOK 19/16 Q1010 NOSIG
07:00
V
19 °C 10 km+ - 280° 280° 9 kt METAR LFMU 180500Z AUTO 28009KT CAVOK 19/16 Q1010 NOSIG
06:30
V
19 °C 10 km+ - 280° 280° 10 kt METAR LFMU 180430Z AUTO 28010KT CAVOK 19/16 Q1011 NOSIG
06:00
V
19 °C 10 km+ - 270° 270° 9 kt METAR LFMU 180400Z AUTO 27009KT CAVOK 19/16 Q1011 NOSIG
05:30
V
19 °C 10 km+ - 270° 270° 9 kt METAR LFMU 180330Z AUTO 27009KT CAVOK 19/16 Q1011 NOSIG
05:00
V
19 °C 10 km+ - 280° 280° 11 kt METAR LFMU 180300Z AUTO 28011KT CAVOK 19/16 Q1011 NOSIG
04:30
V
19 °C 10 km+ - 290° 290° 10 kt METAR LFMU 180230Z AUTO 29010KT CAVOK 19/16 Q1011
04:00
V
19 °C 10 km+ - 260° 260° 6 kt METAR LFMU 180200Z AUTO 26006KT CAVOK 19/16 Q1012
03:30
V
18 °C 10 km+ - 250° 250° 4 kt METAR LFMU 180130Z AUTO 25004KT CAVOK 18/16 Q1012
03:00
V
18 °C 10 km+ - 300° 300° 3 kt METAR LFMU 180100Z AUTO 30003KT CAVOK 18/16 Q1012
02:30
V
18 °C 10 km+ - 280° 280° 3 kt METAR LFMU 180030Z AUTO 28003KT CAVOK 18/16 Q1012
02:00
V
19 °C 10 km+ - 280° 280° 5 kt METAR LFMU 180000Z AUTO 28005KT 250V330 CAVOK 19/16 Q1013
01:30
V
19 °C 10 km+ - 030° 030° 4 kt METAR LFMU 172330Z AUTO 03004KT CAVOK 19/16 Q1013
01:00
V
20 °C 10 km+ - 020° 020° 8 kt METAR LFMU 172300Z AUTO 02008KT CAVOK 20/16 Q1013
00:30
V
19 °C 10 km+ - 010° 010° 4 kt METAR LFMU 172230Z AUTO 01004KT 340V040 CAVOK 19/17 Q1013
00:00
V
20 °C 10 km+ - 050° 050° 7 kt METAR LFMU 172200Z AUTO 05007KT CAVOK 20/16 Q1013

17 augustus 2022

Tijd Code Weer Temp. Zicht Plafond Wind METAR/SPECI
23:30
V
20 °C 10 km+ - 070° 070° 8 kt METAR LFMU 172130Z AUTO 07008KT CAVOK 20/18 Q1013
23:00
V
21 °C 10 km+ - 060° 060° 5 kt METAR LFMU 172100Z AUTO 06005KT CAVOK 21/19 Q1013
22:30
V
22 °C 10 km+ - 080° 080° 6 kt METAR LFMU 172030Z AUTO 08006KT CAVOK 22/19 Q1012 TEMPO VRB15G25KT 4000 TSRA SCT014 SCT030CB
22:00
V
23 °C 10 km+ - 320° 320° 4 kt METAR LFMU 172000Z AUTO 32004KT 290V020 CAVOK 23/17 Q1012 TEMPO VRB15G25KT 4000 TSRA SCT014 SCT030CB
21:30
V
22 °C 10 km+ - 300° 300° 9 kt METAR LFMU 171930Z AUTO 30009KT CAVOK 22/17 Q1010 TEMPO VRB15G25KT 4000 TSRA SCT014 SCT030CB
21:00
V
22 °C 10 km+ - 270° 270° 11 kt METAR LFMU 171900Z AUTO 27011KT CAVOK 22/17 Q1010 TEMPO VRB15G25KT 4000 TSRA SCT014 SCT030CB
20:30
V
22 °C 10 km+ - 280° 280° 6 kt METAR LFMU 171830Z AUTO 28006KT 9999 //////TCU 22/18 Q1009 TEMPO VRB15G25KT 4000 TSRA SCT014 SCT030CB
20:00
V
22 °C 10 km+ 13.000 ft 290° 290° 11 kt METAR LFMU 171800Z AUTO 29011KT 250V320 9999 FEW029/// BKN130/// ///TCU 22/18 Q1010 BECMG 12010KT
19:30
V
23 °C 10 km+ - 330° 330° 12 kt METAR LFMU 171730Z AUTO 33012KT 9999 -RA //////CB 23/20 Q1009 BECMG 12010KT
19:00
V
23 °C 10 km+ - 260° 260° 7 kt METAR LFMU 171700Z AUTO 26007KT 9999 ///CB 23/18 Q1010 TEMPO 3000 TSRA BECMG 12010KT
18:30
V
23 °C 10 km+ 5.600 ft 260° 260° 7 kt METAR LFMU 171630Z AUTO 26007KT 9999 SCT037/// BKN056/// BKN068/// //////CB 23/18 Q1009 TEMPO 3000 TSRA BECMG 12010KT
18:00
V
24 °C 10 km+ 3.700 ft 230° 230° 8 kt METAR LFMU 171600Z AUTO 23008KT 200V270 9999 BKN037 BKN044 BKN240 24/18 Q1010 TEMPO VRB15G25KT 3000 TSRA SCT018 SCT030CB
17:30
V
24 °C 10 km+ - 130° 130° 5 kt METAR LFMU 171530Z AUTO 13005KT 9999 FEW038/// SCT049/// //////CB 24/21 Q1009 TEMPO VRB15G25KT 3000 TSRA
17:00
V
23 °C 10 km+ 3.600 ft 130° 130° 5 kt METAR LFMU 171500Z AUTO 13005KT 080V160 9999 -RA VCTS FEW015/// OVC036/// //////CB 23/21 Q1009 TEMPO VRB15G25KT 3000 TSRA
16:30
I
24 °C 4 km 2.600 ft 140° 140° 5 kt METAR LFMU 171430Z AUTO 14005KT 090V220 4000 TSRA BR SCT018/// BKN026/// OVC031/// //////CB 24/22 Q1009 BECMG 9999 NSW
16:00
M
25 °C 10 km+ 2.800 ft 090° 090° 13 kt METAR LFMU 171400Z AUTO 09013KT 9999 FEW016/// BKN028/// BKN033/// //////CB 25/21 Q1009 TEMPO 15008KT TSRA
15:30
M
28 °C 10 km+ 2.900 ft Var Var 3 kt METAR LFMU 171330Z AUTO VRB03KT 9999 BKN029/// BKN044/// BKN082/// ///CB 28/21 Q1008 TEMPO TSRA
15:00
V
27 °C 10 km+ 3.000 ft 360° 360° 5 kt METAR LFMU 171300Z AUTO 36005KT 270V060 9999 BKN030 OVC036 27/20 Q1008 TEMPO TSRA SCT030CB
14:30
V
27 °C 10 km+ 3.900 ft 310° 310° 6 kt METAR LFMU 171230Z AUTO 31006KT 260V350 9999 SCT030 BKN039 27/20 Q1008 TEMPO TSRA SCT030CB
14:00
V
26 °C 10 km+ 3.400 ft 300° 300° 8 kt METAR LFMU 171200Z AUTO 30008KT 260V330 9999 BKN034 BKN048 26/19 Q1009 TEMPO TSRA SCT030CB
13:30
V
25 °C 10 km+ 3.200 ft 280° 280° 9 kt METAR LFMU 171130Z AUTO 28009KT 9999 BKN032 BKN040 OVC068 25/18 Q1009 TEMPO TSRA SCT030CB
13:00
V
25 °C 10 km+ 13.000 ft 270° 270° 4 kt METAR LFMU 171100Z AUTO 27004KT 230V310 9999 SCT038 SCT066 OVC130 25/19 Q1010 TEMPO SHRA SCT030CB
12:30
V
24 °C 10 km+ 4.200 ft 270° 270° 7 kt METAR LFMU 171030Z AUTO 27007KT 9999 BKN042/// OVC080/// //////TCU 24/18 Q1010 TEMPO SHRA SCT030CB
12:00
V
24 °C 10 km+ 4.800 ft 270° 270° 7 kt METAR LFMU 171000Z AUTO 27007KT 230V290 9999 FEW026/// BKN048/// OVC064/// //////TCU 24/18 Q1010 TEMPO SHRA SCT030CB
11:30
M
24 °C 10 km+ 2.400 ft 260° 260° 5 kt METAR LFMU 170930Z AUTO 26005KT 220V280 9999 BKN024 OVC049 24/19 Q1010 TEMPO SHRA SCT030CB
11:00
M
24 °C 10 km+ 2.300 ft 270° 270° 6 kt METAR LFMU 170900Z AUTO 27006KT 9999 BKN023/// BKN054/// BKN140/// //////TCU 24/18 Q1010 BECMG 02010KT SCT035 FEW050CB
10:30
V
24 °C 10 km+ - 280° 280° 8 kt METAR LFMU 170830Z AUTO 28008KT 250V310 CAVOK 24/18 Q1010 BECMG 02010KT SCT035 FEW050CB
10:00
V
23 °C 10 km+ - 270° 270° 8 kt METAR LFMU 170800Z AUTO 27008KT CAVOK 23/18 Q1009 BECMG 02010KT SCT035 FEW050CB
09:30
V
22 °C 10 km+ - 290° 290° 8 kt METAR LFMU 170730Z AUTO 29008KT 9999 FEW029 22/18 Q1009 BECMG 02010KT SCT035 FEW050CB
09:00
M
21 °C 10 km+ 2.700 ft 280° 280° 7 kt METAR LFMU 170700Z AUTO 28007KT 9999 BKN027 21/18 Q1010 BECMG 02010KT SCT035 FEW050CB
08:30
M
21 °C 10 km+ 2.400 ft 270° 270° 5 kt METAR LFMU 170630Z AUTO 27005KT 9999 BKN024 OVC029 21/18 Q1010 BECMG 02010KT SCT035 FEW050CB
08:00
M
21 °C 10 km+ 2.400 ft 260° 260° 5 kt METAR LFMU 170600Z AUTO 26005KT 9999 BKN024 OVC030 21/18 Q1010 BECMG 32010KT SCT035 FEW050CB
07:30
M
21 °C 10 km+ 2.800 ft 260° 260° 6 kt METAR LFMU 170530Z AUTO 26006KT 9999 OVC028 21/18 Q1009 BECMG 32010KT SCT035 FEW050CB
07:00
M
22 °C 10 km+ 2.700 ft 310° 310° 4 kt METAR LFMU 170500Z AUTO 31004KT 9999 OVC027 22/18 Q1009 BECMG SCT035 FEW050CB
06:30
M
22 °C 10 km+ 2.200 ft Var Var 3 kt METAR LFMU 170430Z AUTO VRB03KT 9999 OVC022 22/18 Q1009 BECMG SCT035 FEW050CB
06:00
M
21 °C 10 km+ 2.100 ft 340° 340° 5 kt METAR LFMU 170400Z AUTO 34005KT 9999 BKN021 21/18 Q1009 BECMG SCT035 FEW050CB
05:30
V
22 °C 10 km+ 4.100 ft 340° 340° 5 kt METAR LFMU 170330Z AUTO 34005KT 9999 SCT020/// BKN041/// BKN048/// //////TCU 22/18 Q1009 BECMG SCT035 FEW050CB
05:00
M
22 °C 10 km+ 2.100 ft 330° 330° 5 kt METAR LFMU 170300Z AUTO 33005KT 9999 BKN021/// OVC044/// ///CB 22/18 Q1009 NOSIG
04:30
V
22 °C 10 km+ 4.000 ft 350° 350° 5 kt METAR LFMU 170230Z AUTO 35005KT 9999 FEW022/// BKN040/// OVC062/// //////TCU 22/18 Q1009 BECMG SCT035 FEW050CB
04:00
V
21 °C 10 km+ 3.700 ft 300° 300° 9 kt METAR LFMU 170200Z AUTO 30009KT 9999 BKN037/// //////CB 21/18 Q1009
03:30
V
20 °C 10 km+ - 310° 310° 7 kt METAR LFMU 170130Z AUTO 31007KT 9999 SCT041/// SCT064/// ///CB 20/18 Q1009
03:00
V
21 °C 10 km+ 6.800 ft 360° 360° 6 kt METAR LFMU 170100Z AUTO 36006KT 9999 SCT038/// BKN068/// //////CB 21/19 Q1009
02:30
V
21 °C 10 km+ 3.300 ft 020° 020° 6 kt METAR LFMU 170030Z AUTO 02006KT 9999 FEW017 BKN033 21/19 Q1009
02:00
M
22 °C 10 km+ 1.900 ft 030° 030° 9 kt METAR LFMU 170000Z AUTO 03009KT 360V070 9999 BKN019 BKN024 BKN034 22/19 Q1008
01:30
M
21 °C 10 km+ 2.900 ft 360° 360° 8 kt METAR LFMU 162330Z AUTO 36008KT 9999 BKN029 OVC058 21/19 Q1008
01:00
M
21 °C 10 km+ 2.700 ft 350° 350° 6 kt METAR LFMU 162300Z AUTO 35006KT 9999 VCTS BKN027/// BKN058/// //////CB 21/19 Q1008
00:30
V
21 °C 10 km+ - 010° 010° 8 kt METAR LFMU 162230Z AUTO 01008KT 9999 VCTS ///CB 21/19 Q1008
00:00
V
21 °C 10 km+ - 020° 020° 8 kt METAR LFMU 162200Z AUTO 02008KT 9999 FEW009/// //////CB 21/19 Q1008

16 augustus 2022

Tijd Code Weer Temp. Zicht Plafond Wind METAR/SPECI
23:30
M
20 °C 10 km+ 1.400 ft 360° 360° 8 kt METAR LFMU 162130Z AUTO 36008KT 9999 VCTS BKN014/// BKN062/// OVC150/// ///CB 20/19 Q1008
23:00
M
20 °C 10 km+ 1.600 ft 010° 010° 8 kt METAR LFMU 162100Z AUTO 01008KT 9999 VCTS BKN016/// BKN150/// //////CB 20/18 Q1008
22:30
M
21 °C 10 km+ 1.800 ft 030° 030° 10 kt METAR LFMU 162030Z AUTO 03010KT 9999 OVC018/// //////CB 21/18 Q1008 TEMPO VRB15G30KT 4000 TSRA BKN010 BKN030CB
22:00
M
20 °C 10 km+ 1.500 ft 030° 030° 12 kt METAR LFMU 162000Z AUTO 03012KT 9999 VCTS OVC015/// //////CB 20/19 Q1008 TEMPO VRB15G30KT 2000 TSRAGR BKN010 BKN030CB
21:30
M
21 °C 10 km+ 1.200 ft 030° 030° 12 kt METAR LFMU 161930Z AUTO 03012KT 350V050 9999 TS BKN012/// //////CB 21/19 Q1008 TEMPO VRB15G30KT 2000 TSRAGR
21:00
M
22 °C 10 km+ 1.200 ft Var Var 15 - 26 kt METAR LFMU 161900Z AUTO VRB15G26KT 9999 -TSRA BKN012/// OVC019/// ///CB 22/19 Q1007 TEMPO 2000 TSRAGR
20:30
M
27 °C 10 km+ 1.500 ft 140° 140° 11 kt METAR LFMU 161830Z AUTO 14011KT 100V200 9999 TS BKN015/// OVC020/// //////CB 27/24 Q1006 TEMPO VRB15G30KT 2000 TSRAGR BKN010 BKN030CB
20:00
M
27 °C 10 km+ 1.700 ft 080° 080° 16 - 28 kt METAR LFMU 161800Z AUTO 08016G28KT 030V120 9999 TS BKN017/// OVC025/// //////CB 27/23 Q1006 TEMPO 2000 TSRAGR BKN010 BKN030CB
19:30
M
27 °C 10 km+ 1.800 ft 110° 110° 11 kt METAR LFMU 161730Z AUTO 11011KT 070V150 9999 VCTS BKN018/// OVC025/// //////CB 27/22 Q1006 TEMPO VRB15G30KT 2000 TSRAGR BKN010 BKN030CB
19:00
M
27 °C 10 km+ 2.000 ft 100° 100° 13 kt METAR LFMU 161700Z AUTO 10013KT 9999 BKN020 27/22 Q1007 TEMPO VRB15G30KT 2000 TSRAGR BKN010 BKN030CB
18:30
M
28 °C 10 km+ 2.100 ft 110° 110° 13 kt METAR LFMU 161630Z AUTO 11013KT 080V140 9999 BKN021 BKN220 28/22 Q1007 TEMPO VRB15G30KT 2000 TSRAGR BKN010 BKN030CB
18:00
V
28 °C 10 km+ - 120° 120° 12 kt METAR LFMU 161600Z AUTO 12012KT 090V150 9999 FEW022 28/22 Q1007 BECMG BKN014 FEW030CB
17:30
V
28 °C 10 km+ - 110° 110° 14 kt METAR LFMU 161530Z AUTO 11014KT 080V140 9999 FEW023 28/21 Q1007 BECMG BKN014 FEW030CB
17:00
V
28 °C 10 km+ - 110° 110° 12 kt METAR LFMU 161500Z AUTO 11012KT 080V150 9999 FEW023 28/21 Q1007 BECMG BKN014 FEW030CB
Oudere gegevens

Met cookies volgen wij en derde partijen jouw internetgedrag binnen onze site. Als je verdergaat gaan we ervan uit dat je dit goedvindt. Meer info